Time,TemperatureF,DewpointF,PressureIn,WindDirection,WindDirectionDegrees,WindSpeedMPH,WindSpeedGustMPH,Humidity,HourlyPrecipIn,Conditions,Clouds,dailyrainin,SoftwareType,DateUTC
2013-01-10 00:02:00,32.0,15.0,-100.00,NE,50,4.0,4.0,48,-99.99,,,-99.99,,2013-01-10 07:02:00,
2013-01-10 00:12:00,33.0,15.0,-100.00,ENE,70,4.0,4.0,46,-99.99,,,-99.99,,2013-01-10 07:12:00,
2013-01-10 00:22:00,32.0,14.0,-100.00,NNE,20,2.0,4.0,47,-99.99,,,-99.99,,2013-01-10 07:22:00,
2013-01-10 00:32:00,30.0,13.0,-100.00,North,5,4.0,4.0,47,-99.99,,,-99.99,,2013-01-10 07:32:00,
2013-01-10 00:42:00,30.0,13.0,-100.00,NE,45,4.0,7.0,48,-99.99,,,-99.99,,2013-01-10 07:42:00,
2013-01-10 00:52:00,34.0,14.0,-100.00,East,90,9.0,11.0,44,-99.99,,,-99.99,,2013-01-10 07:52:00,
2013-01-10 01:02:00,34.0,14.0,-100.00,East,90,9.0,11.0,44,-99.99,,,-99.99,,2013-01-10 08:02:00,
2013-01-10 01:12:00,36.0,15.0,-100.00,ESE,115,10.0,15.0,42,-99.99,,,-99.99,,2013-01-10 08:12:00,
2013-01-10 01:22:00,36.0,15.0,-100.00,ESE,115,11.0,16.0,41,-99.99,,,-99.99,,2013-01-10 08:22:00,
2013-01-10 01:32:00,36.0,15.0,-100.00,East,100,10.0,15.0,42,-99.99,,,-99.99,,2013-01-10 08:32:00,
2013-01-10 01:42:00,36.0,15.0,-100.00,East,90,13.0,17.0,41,-99.99,,,-99.99,,2013-01-10 08:42:00,
2013-01-10 01:52:00,37.0,15.0,-100.00,East,100,16.0,21.0,40,-99.99,,,-99.99,,2013-01-10 08:52:00,
2013-01-10 02:02:00,37.0,15.0,-100.00,East,100,16.0,21.0,40,-99.99,,,-99.99,,2013-01-10 09:02:00,
2013-01-10 02:12:00,37.0,15.0,-100.00,East,95,18.0,24.0,40,-99.99,,,-99.99,,2013-01-10 09:12:00,
2013-01-10 02:22:00,37.0,15.0,-100.00,East,95,18.0,24.0,40,-99.99,,,-99.99,,2013-01-10 09:22:00,
2013-01-10 02:32:00,36.0,15.0,-100.00,East,90,21.0,26.0,41,-99.99,,,-99.99,,2013-01-10 09:32:00,
2013-01-10 02:42:00,36.0,15.0,-100.00,East,90,19.0,26.0,41,-99.99,,,-99.99,,2013-01-10 09:42:00,
2013-01-10 02:52:00,35.0,14.0,-100.00,East,85,18.0,27.0,41,-99.99,,,-99.99,,2013-01-10 09:52:00,
2013-01-10 03:02:00,35.0,14.0,-100.00,East,85,18.0,27.0,41,-99.99,,,-99.99,,2013-01-10 10:02:00,
2013-01-10 03:12:00,33.0,14.0,-100.00,East,85,13.0,20.0,44,-99.99,,,-99.99,,2013-01-10 10:12:00,
2013-01-10 03:22:00,33.0,14.0,-100.00,East,85,13.0,20.0,44,-99.99,,,-99.99,,2013-01-10 10:22:00,
2013-01-10 03:32:00,34.0,15.0,-100.00,East,100,14.0,20.0,44,-99.99,,,-99.99,,2013-01-10 10:32:00,
2013-01-10 03:42:00,33.0,14.0,-100.00,East,100,9.0,16.0,45,-99.99,,,-99.99,,2013-01-10 10:42:00,
2013-01-10 03:52:00,33.0,14.0,-100.00,East,100,9.0,12.0,46,-99.99,,,-99.99,,2013-01-10 10:52:00,
2013-01-10 04:02:00,33.0,14.0,-100.00,East,85,10.0,14.0,46,-99.99,,,-99.99,,2013-01-10 11:02:00,
2013-01-10 04:12:00,34.0,15.0,-100.00,East,80,16.0,20.0,44,-99.99,,,-99.99,,2013-01-10 11:12:00,
2013-01-10 04:22:00,33.0,14.0,-100.00,East,95,14.0,19.0,46,-99.99,,,-99.99,,2013-01-10 11:22:00,
2013-01-10 04:32:00,32.0,14.0,-100.00,East,80,13.0,18.0,47,-99.99,,,-99.99,,2013-01-10 11:32:00,
2013-01-10 04:42:00,32.0,15.0,-100.00,East,80,12.0,17.0,47,-99.99,,,-99.99,,2013-01-10 11:42:00,
2013-01-10 04:52:00,32.0,15.0,-100.00,East,85,12.0,19.0,47,-99.99,,,-99.99,,2013-01-10 11:52:00,
2013-01-10 05:02:00,33.0,15.0,-100.00,East,90,13.0,18.0,47,-99.99,,,-99.99,,2013-01-10 12:02:00,
2013-01-10 05:12:00,33.0,15.0,-100.00,ESE,105,12.0,17.0,46,-99.99,,,-99.99,,2013-01-10 12:12:00,
2013-01-10 05:22:00,32.0,14.0,-100.00,SE,130,7.0,16.0,47,-99.99,,,-99.99,,2013-01-10 12:22:00,
2013-01-10 05:32:00,31.0,14.0,-100.00,ESE,120,8.0,11.0,48,-99.99,,,-99.99,,2013-01-10 12:32:00,
2013-01-10 05:42:00,31.0,14.0,-100.00,ESE,115,8.0,11.0,48,-99.99,,,-99.99,,2013-01-10 12:42:00,
2013-01-10 05:52:00,31.0,14.0,-100.00,ESE,115,8.0,12.0,48,-99.99,,,-99.99,,2013-01-10 12:52:00,
2013-01-10 06:02:00,29.0,13.0,-100.00,SSE,155,5.0,9.0,49,-99.99,,,-99.99,,2013-01-10 13:02:00,
2013-01-10 06:12:00,28.0,12.0,-100.00,SSE,160,4.0,6.0,50,-99.99,,,-99.99,,2013-01-10 13:12:00,
2013-01-10 06:22:00,30.0,13.0,-100.00,East,90,6.0,9.0,49,-99.99,,,-99.99,,2013-01-10 13:22:00,
2013-01-10 06:32:00,29.0,13.0,-100.00,ENE,65,3.0,7.0,49,-99.99,,,-99.99,,2013-01-10 13:32:00,
2013-01-10 06:42:00,26.0,11.0,-100.00,West,270,3.0,5.0,50,-99.99,,,-99.99,,2013-01-10 13:42:00,
2013-01-10 06:52:00,25.0,10.0,-100.00,North,5,1.0,3.0,52,-99.99,,,-99.99,,2013-01-10 13:52:00,
2013-01-10 07:02:00,25.0,11.0,-100.00,NNW,345,0.0,2.0,54,-99.99,,,-99.99,,2013-01-10 14:02:00,
2013-01-10 07:12:00,26.0,11.0,-100.00,North,0,2.0,2.0,54,-99.99,,,-99.99,,2013-01-10 14:12:00,
2013-01-10 07:22:00,25.0,11.0,-100.00,North,5,4.0,4.0,54,-99.99,,,-99.99,,2013-01-10 14:22:00,
2013-01-10 07:33:00,24.0,11.0,-100.00,North,350,4.0,6.0,55,-99.99,,,-99.99,,2013-01-10 14:33:00,
2013-01-10 07:43:00,25.0,13.0,-100.00,NNE,25,4.0,5.0,59,-99.99,,,-99.99,,2013-01-10 14:43:00,
2013-01-10 07:53:00,26.0,13.0,-100.00,NNE,30,3.0,4.0,58,-99.99,,,-99.99,,2013-01-10 14:53:00,
2013-01-10 08:03:00,26.0,13.0,-100.00,NNE,25,2.0,6.0,58,-99.99,,,-99.99,,2013-01-10 15:03:00,
2013-01-10 08:12:00,28.0,13.0,-100.00,NNE,30,7.0,7.0,55,-99.99,,,-99.99,,2013-01-10 15:12:00,
2013-01-10 08:22:00,31.0,14.0,-100.00,NNE,15,6.0,9.0,49,-99.99,,,-99.99,,2013-01-10 15:22:00,
2013-01-10 08:33:00,32.0,15.0,-100.00,North,10,7.0,9.0,50,-99.99,,,-99.99,,2013-01-10 15:33:00,
2013-01-10 08:43:00,32.0,15.0,-100.00,North,10,7.0,9.0,50,-99.99,,,-99.99,,2013-01-10 15:43:00,
2013-01-10 08:53:00,32.0,15.0,-100.00,North,5,6.0,9.0,50,-99.99,,,-99.99,,2013-01-10 15:53:00,
2013-01-10 09:02:00,33.0,16.0,-100.00,North,10,7.0,9.0,49,-99.99,,,-99.99,,2013-01-10 16:02:00,
2013-01-10 09:13:00,37.0,19.0,-100.00,North,5,4.0,7.0,47,-99.99,,,-99.99,,2013-01-10 16:13:00,
2013-01-10 09:22:00,37.0,19.0,-100.00,North,5,4.0,7.0,47,-99.99,,,-99.99,,2013-01-10 16:22:00,
2013-01-10 09:33:00,38.0,18.0,-100.00,North,0,3.0,5.0,44,-99.99,,,-99.99,,2013-01-10 16:33:00,
2013-01-10 09:42:00,40.0,20.0,-100.00,NNW,345,1.0,4.0,44,-99.99,,,-99.99,,2013-01-10 16:42:00,
2013-01-10 09:53:00,42.0,21.0,-100.00,NE,50,0.0,2.0,42,-99.99,,,-99.99,,2013-01-10 16:53:00,
2013-01-10 10:03:00,44.0,22.0,-100.00,ESE,105,2.0,4.0,42,-99.99,,,-99.99,,2013-01-10 17:03:00,
2013-01-10 10:12:00,42.0,20.0,-100.00,SW,235,3.0,6.0,41,-99.99,,,-99.99,,2013-01-10 17:12:00,
2013-01-10 10:22:00,44.0,22.0,-100.00,NW,315,0.0,4.0,42,-99.99,,,-99.99,,2013-01-10 17:22:00,
2013-01-10 10:33:00,46.0,24.0,-100.00,NNW,330,3.0,6.0,41,-99.99,,,-99.99,,2013-01-10 17:33:00,
2013-01-10 10:42:00,46.0,26.0,-100.00,ENE,70,6.0,9.0,45,-99.99,,,-99.99,,2013-01-10 17:42:00,
2013-01-10 10:53:00,48.0,28.0,-100.00,ENE,75,4.0,7.0,45,-99.99,,,-99.99,,2013-01-10 17:53:00,
2013-01-10 11:03:00,49.0,29.0,-100.00,East,100,5.0,7.0,45,-99.99,,,-99.99,,2013-01-10 18:03:00,
2013-01-10 11:12:00,48.0,27.0,-100.00,South,170,4.0,12.0,43,-99.99,,,-99.99,,2013-01-10 18:12:00,
2013-01-10 11:23:00,43.0,22.0,-100.00,SSW,205,9.0,11.0,41,-99.99,,,-99.99,,2013-01-10 18:23:00,
2013-01-10 11:33:00,40.0,20.0,-100.00,SSW,210,11.0,12.0,44,-99.99,,,-99.99,,2013-01-10 18:33:00,
2013-01-10 11:43:00,40.0,20.0,-100.00,SSW,210,11.0,12.0,44,-99.99,,,-99.99,,2013-01-10 18:43:00,
2013-01-10 11:52:00,40.0,20.0,-100.00,SW,225,9.0,11.0,44,-99.99,,,-99.99,,2013-01-10 18:52:00,
2013-01-10 12:03:00,40.0,20.0,-100.00,SSW,200,7.0,10.0,44,-99.99,,,-99.99,,2013-01-10 19:03:00,
2013-01-10 12:13:00,41.0,21.0,-100.00,South,185,6.0,10.0,43,-99.99,,,-99.99,,2013-01-10 19:13:00,
2013-01-10 12:23:00,41.0,21.0,-100.00,South,185,6.0,10.0,43,-99.99,,,-99.99,,2013-01-10 19:23:00,
2013-01-10 12:33:00,41.0,21.0,-100.00,South,190,7.0,9.0,43,-99.99,,,-99.99,,2013-01-10 19:33:00,
2013-01-10 12:43:00,41.0,21.0,-100.00,South,185,7.0,12.0,44,-99.99,,,-99.99,,2013-01-10 19:43:00,
2013-01-10 12:53:00,39.0,20.0,-100.00,SSW,195,9.0,12.0,45,-99.99,,,-99.99,,2013-01-10 19:53:00,
2013-01-10 13:02:00,39.0,20.0,-100.00,SSW,195,9.0,12.0,45,-99.99,,,-99.99,,2013-01-10 20:02:00,
2013-01-10 13:12:00,40.0,20.0,-100.00,SSW,195,11.0,12.0,44,-99.99,,,-99.99,,2013-01-10 20:12:00,
2013-01-10 13:23:00,40.0,20.0,-100.00,SSW,195,11.0,12.0,44,-99.99,,,-99.99,,2013-01-10 20:23:00,
2013-01-10 13:33:00,40.0,20.0,-100.00,SSW,200,9.0,12.0,44,-99.99,,,-99.99,,2013-01-10 20:33:00,
2013-01-10 13:42:00,40.0,19.0,-100.00,SSW,195,12.0,12.0,43,-99.99,,,-99.99,,2013-01-10 20:42:00,
2013-01-10 13:53:00,40.0,20.0,-100.00,South,190,9.0,12.0,43,-99.99,,,-99.99,,2013-01-10 20:53:00,
2013-01-10 14:12:00,40.0,19.0,-100.00,SSW,195,13.0,16.0,43,-99.99,,,-99.99,,2013-01-10 21:12:00,
2013-01-10 14:23:00,40.0,19.0,-100.00,SSW,195,13.0,16.0,43,-99.99,,,-99.99,,2013-01-10 21:23:00,
2013-01-10 14:33:00,40.0,20.0,-100.00,South,185,12.0,16.0,43,-99.99,,,-99.99,,2013-01-10 21:33:00,
2013-01-10 14:42:00,39.0,19.0,-100.00,South,180,7.0,12.0,43,-99.99,,,-99.99,,2013-01-10 21:42:00,
2013-01-10 14:53:00,39.0,19.0,-100.00,South,190,7.0,9.0,43,-99.99,,,-99.99,,2013-01-10 21:53:00,
2013-01-10 15:03:00,39.0,19.0,-100.00,South,190,7.0,9.0,43,-99.99,,,-99.99,,2013-01-10 22:03:00,
2013-01-10 15:12:00,39.0,19.0,-100.00,South,180,6.0,11.0,44,-99.99,,,-99.99,,2013-01-10 22:12:00,
2013-01-10 15:25:00,39.0,19.0,-100.00,South,180,6.0,11.0,44,-99.99,,,-99.99,,2013-01-10 22:25:00,
2013-01-10 15:32:00,39.0,20.0,-100.00,South,175,3.0,6.0,46,-99.99,,,-99.99,,2013-01-10 22:32:00,
2013-01-10 15:43:00,38.0,20.0,-100.00,SSE,165,4.0,6.0,48,-99.99,,,-99.99,,2013-01-10 22:43:00,
2013-01-10 16:02:00,38.0,21.0,-100.00,SSE,165,6.0,7.0,50,-99.99,,,-99.99,,2013-01-10 23:02:00,
2013-01-10 16:12:00,37.0,20.0,-100.00,SE,145,3.0,5.0,50,-99.99,,,-99.99,,2013-01-10 23:12:00,
2013-01-10 16:22:00,37.0,20.0,-100.00,SE,145,3.0,5.0,50,-99.99,,,-99.99,,2013-01-10 23:22:00,
2013-01-10 16:33:00,36.0,21.0,-100.00,SSE,165,4.0,6.0,54,-99.99,,,-99.99,,2013-01-10 23:33:00,
2013-01-10 16:43:00,36.0,21.0,-100.00,SE,145,6.0,6.0,55,-99.99,,,-99.99,,2013-01-10 23:43:00,
2013-01-10 16:53:00,35.0,21.0,-100.00,SE,140,4.0,7.0,55,-99.99,,,-99.99,,2013-01-10 23:53:00,
2013-01-10 17:02:00,35.0,21.0,-100.00,East,80,1.0,5.0,57,-99.99,,,-99.99,,2013-01-11 00:02:00,
2013-01-10 17:12:00,35.0,21.0,-100.00,East,80,1.0,5.0,57,-99.99,,,-99.99,,2013-01-11 00:12:00,
2013-01-10 17:23:00,33.0,21.0,-100.00,ESE,110,7.0,8.0,60,-99.99,,,-99.99,,2013-01-11 00:23:00,
2013-01-10 17:33:00,33.0,21.0,-100.00,ESE,115,8.0,9.0,61,-99.99,,,-99.99,,2013-01-11 00:33:00,
2013-01-10 17:42:00,33.0,22.0,-100.00,South,175,10.0,11.0,64,-99.99,,,-99.99,,2013-01-11 00:42:00,
2013-01-10 17:52:00,34.0,22.0,-100.00,South,170,10.0,12.0,63,-99.99,,,-99.99,,2013-01-11 00:52:00,
2013-01-10 18:03:00,34.0,22.0,-100.00,South,185,11.0,12.0,62,-99.99,,,-99.99,,2013-01-11 01:03:00,
2013-01-10 18:13:00,33.0,22.0,-100.00,South,190,9.0,11.0,63,-99.99,,,-99.99,,2013-01-11 01:13:00,
2013-01-10 18:22:00,32.0,22.0,-100.00,South,190,7.0,10.0,66,-99.99,,,-99.99,,2013-01-11 01:22:00,
2013-01-10 18:33:00,31.0,21.0,-100.00,SSW,205,7.0,9.0,66,-99.99,,,-99.99,,2013-01-11 01:33:00,
2013-01-10 18:43:00,31.0,21.0,-100.00,SSW,205,7.0,9.0,66,-99.99,,,-99.99,,2013-01-11 01:43:00,
2013-01-10 18:52:00,31.0,22.0,-100.00,South,190,8.0,10.0,66,-99.99,,,-99.99,,2013-01-11 01:52:00,
2013-01-10 19:02:00,32.0,22.0,-100.00,South,175,6.0,9.0,66,-99.99,,,-99.99,,2013-01-11 02:02:00,
2013-01-10 19:12:00,32.0,22.0,-100.00,South,175,6.0,9.0,65,-99.99,,,-99.99,,2013-01-11 02:12:00,
2013-01-10 19:23:00,32.0,22.0,-100.00,South,185,7.0,9.0,65,-99.99,,,-99.99,,2013-01-11 02:23:00,
2013-01-10 19:33:00,31.0,21.0,-100.00,SSE,150,6.0,7.0,67,-99.99,,,-99.99,,2013-01-11 02:33:00,
2013-01-10 19:43:00,31.0,22.0,-100.00,South,175,6.0,7.0,68,-99.99,,,-99.99,,2013-01-11 02:43:00,
2013-01-10 19:53:00,31.0,22.0,-100.00,SSE,165,4.0,7.0,69,-99.99,,,-99.99,,2013-01-11 02:53:00,
2013-01-10 20:02:00,31.0,22.0,-100.00,SSE,155,4.0,7.0,68,-99.99,,,-99.99,,2013-01-11 03:02:00,
2013-01-10 20:12:00,30.0,22.0,-100.00,SE,125,0.0,6.0,69,-99.99,,,-99.99,,2013-01-11 03:12:00,
2013-01-10 20:23:00,29.0,20.0,-100.00,SSW,195,4.0,6.0,69,-99.99,,,-99.99,,2013-01-11 03:23:00,
2013-01-10 20:33:00,29.0,21.0,-100.00,SSE,160,5.0,8.0,72,-99.99,,,-99.99,,2013-01-11 03:33:00,
2013-01-10 20:43:00,29.0,21.0,-100.00,SSE,160,5.0,8.0,72,-99.99,,,-99.99,,2013-01-11 03:43:00,
2013-01-10 20:52:00,29.0,22.0,-100.00,SE,130,4.0,7.0,72,-99.99,,,-99.99,,2013-01-11 03:52:00,
2013-01-10 21:02:00,28.0,21.0,-100.00,SE,125,4.0,6.0,74,-99.99,,,-99.99,,2013-01-11 04:02:00,
2013-01-10 21:12:00,28.0,22.0,-100.00,SE,145,7.0,8.0,77,-99.99,,,-99.99,,2013-01-11 04:12:00,
2013-01-10 21:22:00,28.0,22.0,-100.00,SE,145,7.0,9.0,77,-99.99,,,-99.99,,2013-01-11 04:22:00,
2013-01-10 21:33:00,29.0,23.0,-100.00,SE,145,4.0,8.0,76,-99.99,,,-99.99,,2013-01-11 04:33:00,
2013-01-10 21:42:00,29.0,23.0,-100.00,SE,145,4.0,8.0,76,-99.99,,,-99.99,,2013-01-11 04:42:00,
2013-01-10 21:52:00,29.0,22.0,-100.00,East,95,2.0,5.0,76,-99.99,,,-99.99,,2013-01-11 04:52:00,
2013-01-10 22:03:00,29.0,22.0,-100.00,SE,140,5.0,7.0,75,-99.99,,,-99.99,,2013-01-11 05:03:00,
2013-01-10 22:12:00,29.0,22.0,-100.00,SE,140,5.0,7.0,75,-99.99,,,-99.99,,2013-01-11 05:12:00,
2013-01-10 22:22:00,28.0,22.0,-100.00,ESE,110,6.0,7.0,76,-99.99,,,-99.99,,2013-01-11 05:22:00,
2013-01-10 22:33:00,28.0,21.0,-100.00,ENE,75,6.0,8.0,76,-99.99,,,-99.99,,2013-01-11 05:33:00,
2013-01-10 22:42:00,28.0,21.0,-100.00,SSE,160,6.0,6.0,76,-99.99,,,-99.99,,2013-01-11 05:42:00,
2013-01-10 22:52:00,29.0,22.0,-100.00,SE,140,6.0,7.0,73,-99.99,,,-99.99,,2013-01-11 05:52:00,
2013-01-10 23:03:00,29.0,22.0,-100.00,SE,140,6.0,7.0,73,-99.99,,,-99.99,,2013-01-11 06:03:00,
2013-01-10 23:12:00,27.0,19.0,-100.00,South,185,4.0,6.0,72,-99.99,,,-99.99,,2013-01-11 06:12:00,
2013-01-10 23:22:00,27.0,19.0,-100.00,South,185,4.0,6.0,72,-99.99,,,-99.99,,2013-01-11 06:22:00,
2013-01-10 23:32:00,27.0,20.0,-100.00,NE,55,4.0,6.0,73,-99.99,,,-99.99,,2013-01-11 06:32:00,
2013-01-10 23:42:00,26.0,20.0,-100.00,ENE,60,2.0,7.0,76,-99.99,,,-99.99,,2013-01-11 06:42:00,
2013-01-10 23:52:00,26.0,20.0,-100.00,ENE,75,4.0,4.0,80,-99.99,,,-99.99,,2013-01-11 06:52:00,